sensor_id;sensor_type;location;lat;lon;timestamp;temperature;humidity
31639;DHT22;18248;51.522;7.020;2023-04-15T00:02:49;8.80;99.90
31639;DHT22;18248;51.522;7.020;2023-04-15T00:05:48;8.80;99.90
31639;DHT22;18248;51.522;7.020;2023-04-15T00:08:47;8.70;99.90
31639;DHT22;18248;51.522;7.020;2023-04-15T00:11:46;8.70;99.90
31639;DHT22;18248;51.522;7.020;2023-04-15T00:14:45;8.70;99.90
31639;DHT22;18248;51.522;7.020;2023-04-15T00:17:43;8.70;99.90
31639;DHT22;18248;51.522;7.020;2023-04-15T00:20:42;8.60;99.90
31639;DHT22;18248;51.522;7.020;2023-04-15T00:23:41;8.50;99.90
31639;DHT22;18248;51.522;7.020;2023-04-15T00:26:40;8.40;99.90
31639;DHT22;18248;51.522;7.020;2023-04-15T00:29:39;8.30;99.90
31639;DHT22;18248;51.522;7.020;2023-04-15T00:32:41;8.30;99.90
31639;DHT22;18248;51.522;7.020;2023-04-15T00:35:39;8.30;99.90
31639;DHT22;18248;51.522;7.020;2023-04-15T00:38:38;8.20;99.90
31639;DHT22;18248;51.522;7.020;2023-04-15T00:41:37;8.20;99.90
31639;DHT22;18248;51.522;7.020;2023-04-15T00:44:38;8.20;99.90
31639;DHT22;18248;51.522;7.020;2023-04-15T00:47:40;8.10;99.90
31639;DHT22;18248;51.522;7.020;2023-04-15T00:50:38;8.10;99.90
31639;DHT22;18248;51.522;7.020;2023-04-15T00:53:37;8.10;99.90
31639;DHT22;18248;51.522;7.020;2023-04-15T00:56:37;8.00;99.90
31639;DHT22;18248;51.522;7.020;2023-04-15T00:59:35;8.00;99.90
31639;DHT22;18248;51.522;7.020;2023-04-15T01:02:35;8.00;99.90
31639;DHT22;18248;51.522;7.020;2023-04-15T01:05:34;8.00;99.90
31639;DHT22;18248;51.522;7.020;2023-04-15T01:08:33;7.90;99.90
31639;DHT22;18248;51.522;7.020;2023-04-15T01:11:32;7.80;99.90
31639;DHT22;18248;51.522;7.020;2023-04-15T01:14:33;7.80;99.90
31639;DHT22;18248;51.522;7.020;2023-04-15T01:17:32;7.70;99.90
31639;DHT22;18248;51.522;7.020;2023-04-15T01:20:33;7.70;99.90
31639;DHT22;18248;51.522;7.020;2023-04-15T01:23:35;7.70;99.90
31639;DHT22;18248;51.522;7.020;2023-04-15T01:26:37;7.60;99.90
31639;DHT22;18248;51.522;7.020;2023-04-15T01:29:37;7.60;99.90
31639;DHT22;18248;51.522;7.020;2023-04-15T01:32:36;7.60;99.90
31639;DHT22;18248;51.522;7.020;2023-04-15T01:35:36;7.60;99.90
31639;DHT22;18248;51.522;7.020;2023-04-15T01:38:36;7.50;99.90
31639;DHT22;18248;51.522;7.020;2023-04-15T01:41:35;7.40;99.90
31639;DHT22;18248;51.522;7.020;2023-04-15T01:44:33;7.40;99.90
31639;DHT22;18248;51.522;7.020;2023-04-15T01:47:32;7.40;99.90
31639;DHT22;18248;51.522;7.020;2023-04-15T01:50:30;7.40;99.90
31639;DHT22;18248;51.522;7.020;2023-04-15T01:53:29;7.40;99.90
31639;DHT22;18248;51.522;7.020;2023-04-15T01:56:27;7.30;99.90
31639;DHT22;18248;51.522;7.020;2023-04-15T01:59:26;7.30;99.90
31639;DHT22;18248;51.522;7.020;2023-04-15T02:02:25;7.30;99.90
31639;DHT22;18248;51.522;7.020;2023-04-15T02:05:24;7.30;99.90
31639;DHT22;18248;51.522;7.020;2023-04-15T02:08:22;7.20;99.90
31639;DHT22;18248;51.522;7.020;2023-04-15T02:11:21;7.20;99.90
31639;DHT22;18248;51.522;7.020;2023-04-15T02:14:20;7.20;99.90
31639;DHT22;18248;51.522;7.020;2023-04-15T02:17:19;7.10;99.90
31639;DHT22;18248;51.522;7.020;2023-04-15T02:20:19;7.10;99.90
31639;DHT22;18248;51.522;7.020;2023-04-15T02:23:18;7.10;99.90
31639;DHT22;18248;51.522;7.020;2023-04-15T02:26:17;7.10;99.90
31639;DHT22;18248;51.522;7.020;2023-04-15T02:29:16;7.20;99.90
31639;DHT22;18248;51.522;7.020;2023-04-15T02:32:14;7.10;99.90
31639;DHT22;18248;51.522;7.020;2023-04-15T02:35:13;7.10;99.90
31639;DHT22;18248;51.522;7.020;2023-04-15T02:38:11;7.10;99.90
31639;DHT22;18248;51.522;7.020;2023-04-15T02:41:11;7.10;99.90
31639;DHT22;18248;51.522;7.020;2023-04-15T02:44:10;7.10;99.90
31639;DHT22;18248;51.522;7.020;2023-04-15T02:47:10;7.10;99.90
31639;DHT22;18248;51.522;7.020;2023-04-15T02:50:10;7.10;99.90
31639;DHT22;18248;51.522;7.020;2023-04-15T02:53:09;7.10;99.90
31639;DHT22;18248;51.522;7.020;2023-04-15T02:56:08;7.10;99.90
31639;DHT22;18248;51.522;7.020;2023-04-15T02:59:07;7.10;99.90
31639;DHT22;18248;51.522;7.020;2023-04-15T03:02:05;7.10;99.90
31639;DHT22;18248;51.522;7.020;2023-04-15T03:05:06;7.10;99.90
31639;DHT22;18248;51.522;7.020;2023-04-15T03:08:04;7.00;99.90
31639;DHT22;18248;51.522;7.020;2023-04-15T03:11:05;7.10;99.90
31639;DHT22;18248;51.522;7.020;2023-04-15T03:14:04;7.10;99.90
31639;DHT22;18248;51.522;7.020;2023-04-15T03:17:03;7.00;99.90
31639;DHT22;18248;51.522;7.020;2023-04-15T03:20:02;7.00;99.90
31639;DHT22;18248;51.522;7.020;2023-04-15T03:23:02;7.00;99.90
31639;DHT22;18248;51.522;7.020;2023-04-15T03:26:01;6.90;99.90
31639;DHT22;18248;51.522;7.020;2023-04-15T03:29:00;6.90;99.90
31639;DHT22;18248;51.522;7.020;2023-04-15T03:31:58;6.90;99.90
31639;DHT22;18248;51.522;7.020;2023-04-15T03:34:57;6.80;99.90
31639;DHT22;18248;51.522;7.020;2023-04-15T03:37:55;6.80;99.90
31639;DHT22;18248;51.522;7.020;2023-04-15T03:40:54;6.80;99.90
31639;DHT22;18248;51.522;7.020;2023-04-15T03:43:53;6.70;99.90
31639;DHT22;18248;51.522;7.020;2023-04-15T03:46:53;6.70;99.90
31639;DHT22;18248;51.522;7.020;2023-04-15T03:49:51;6.70;99.90
31639;DHT22;18248;51.522;7.020;2023-04-15T03:52:50;6.70;99.90
31639;DHT22;18248;51.522;7.020;2023-04-15T03:55:48;6.70;99.90
31639;DHT22;18248;51.522;7.020;2023-04-15T03:58:47;6.70;99.90
31639;DHT22;18248;51.522;7.020;2023-04-15T04:01:46;6.70;99.90
31639;DHT22;18248;51.522;7.020;2023-04-15T04:04:44;6.70;99.90
31639;DHT22;18248;51.522;7.020;2023-04-15T04:07:43;6.70;99.90
31639;DHT22;18248;51.522;7.020;2023-04-15T04:10:42;6.70;99.90
31639;DHT22;18248;51.522;7.020;2023-04-15T04:13:41;6.70;99.90
31639;DHT22;18248;51.522;7.020;2023-04-15T04:16:39;6.70;99.90
31639;DHT22;18248;51.522;7.020;2023-04-15T04:19:38;6.70;99.90
31639;DHT22;18248;51.522;7.020;2023-04-15T04:22:38;6.70;99.90
31639;DHT22;18248;51.522;7.020;2023-04-15T04:25:37;6.60;99.90
31639;DHT22;18248;51.522;7.020;2023-04-15T04:28:36;6.60;99.90
31639;DHT22;18248;51.522;7.020;2023-04-15T04:31:37;6.60;99.90
31639;DHT22;18248;51.522;7.020;2023-04-15T04:34:36;6.60;99.90
31639;DHT22;18248;51.522;7.020;2023-04-15T04:37:34;6.60;99.90
31639;DHT22;18248;51.522;7.020;2023-04-15T04:40:33;6.60;99.90
31639;DHT22;18248;51.522;7.020;2023-04-15T04:43:32;6.60;99.90
31639;DHT22;18248;51.522;7.020;2023-04-15T04:46:30;6.60;99.90
31639;DHT22;18248;51.522;7.020;2023-04-15T04:49:29;6.60;99.90
31639;DHT22;18248;51.522;7.020;2023-04-15T04:52:27;6.60;99.90
31639;DHT22;18248;51.522;7.020;2023-04-15T04:55:26;6.50;99.90
31639;DHT22;18248;51.522;7.020;2023-04-15T04:58:25;6.50;99.90
31639;DHT22;18248;51.522;7.020;2023-04-15T05:01:23;6.60;99.90
31639;DHT22;18248;51.522;7.020;2023-04-15T05:04:24;6.60;99.90
31639;DHT22;18248;51.522;7.020;2023-04-15T05:07:23;6.60;99.90
31639;DHT22;18248;51.522;7.020;2023-04-15T05:10:23;6.60;99.90
31639;DHT22;18248;51.522;7.020;2023-04-15T05:13:22;6.60;99.90
31639;DHT22;18248;51.522;7.020;2023-04-15T05:16:21;6.70;99.90
31639;DHT22;18248;51.522;7.020;2023-04-15T05:19:19;6.70;99.90
31639;DHT22;18248;51.522;7.020;2023-04-15T05:22:18;6.70;99.90
31639;DHT22;18248;51.522;7.020;2023-04-15T05:25:16;6.80;99.90
31639;DHT22;18248;51.522;7.020;2023-04-15T05:28:15;6.80;99.90
31639;DHT22;18248;51.522;7.020;2023-04-15T05:31:14;6.90;99.90
31639;DHT22;18248;51.522;7.020;2023-04-15T05:34:13;6.90;99.90
31639;DHT22;18248;51.522;7.020;2023-04-15T05:37:13;6.90;99.90
31639;DHT22;18248;51.522;7.020;2023-04-15T05:40:11;7.00;99.90
31639;DHT22;18248;51.522;7.020;2023-04-15T05:43:10;7.00;99.90
31639;DHT22;18248;51.522;7.020;2023-04-15T05:46:10;7.10;99.90
31639;DHT22;18248;51.522;7.020;2023-04-15T05:49:08;7.20;99.90
31639;DHT22;18248;51.522;7.020;2023-04-15T05:52:07;7.30;99.90
31639;DHT22;18248;51.522;7.020;2023-04-15T05:55:05;7.30;99.90
31639;DHT22;18248;51.522;7.020;2023-04-15T05:58:04;7.50;99.90
31639;DHT22;18248;51.522;7.020;2023-04-15T06:01:03;7.50;99.90
31639;DHT22;18248;51.522;7.020;2023-04-15T06:04:01;7.70;99.90
31639;DHT22;18248;51.522;7.020;2023-04-15T06:07:01;7.70;99.90
31639;DHT22;18248;51.522;7.020;2023-04-15T06:10:06;7.80;99.90
31639;DHT22;18248;51.522;7.020;2023-04-15T06:13:05;7.90;99.90
31639;DHT22;18248;51.522;7.020;2023-04-15T06:16:04;8.00;99.90
31639;DHT22;18248;51.522;7.020;2023-04-15T06:19:03;8.20;99.90
31639;DHT22;18248;51.522;7.020;2023-04-15T06:22:02;8.30;99.90
31639;DHT22;18248;51.522;7.020;2023-04-15T06:25:01;8.40;99.90
31639;DHT22;18248;51.522;7.020;2023-04-15T06:27:59;8.40;99.90
31639;DHT22;18248;51.522;7.020;2023-04-15T06:30:59;8.50;99.90
31639;DHT22;18248;51.522;7.020;2023-04-15T06:33:58;8.60;99.90
31639;DHT22;18248;51.522;7.020;2023-04-15T06:36:57;8.70;99.90
31639;DHT22;18248;51.522;7.020;2023-04-15T06:39:55;8.80;99.90
31639;DHT22;18248;51.522;7.020;2023-04-15T06:42:54;9.00;99.90
31639;DHT22;18248;51.522;7.020;2023-04-15T06:45:52;9.20;99.90
31639;DHT22;18248;51.522;7.020;2023-04-15T06:48:51;9.30;99.90
31639;DHT22;18248;51.522;7.020;2023-04-15T06:51:49;9.50;99.90
31639;DHT22;18248;51.522;7.020;2023-04-15T06:54:48;9.70;99.90
31639;DHT22;18248;51.522;7.020;2023-04-15T06:57:47;9.80;99.90
31639;DHT22;18248;51.522;7.020;2023-04-15T07:00:46;9.90;99.90
31639;DHT22;18248;51.522;7.020;2023-04-15T07:03:45;10.10;99.90
31639;DHT22;18248;51.522;7.020;2023-04-15T07:06:43;10.20;99.90
31639;DHT22;18248;51.522;7.020;2023-04-15T07:09:43;10.20;99.90
31639;DHT22;18248;51.522;7.020;2023-04-15T07:12:41;10.30;99.90
31639;DHT22;18248;51.522;7.020;2023-04-15T07:15:40;10.30;99.90
31639;DHT22;18248;51.522;7.020;2023-04-15T07:18:38;10.40;99.90
31639;DHT22;18248;51.522;7.020;2023-04-15T07:21:37;10.50;99.90
31639;DHT22;18248;51.522;7.020;2023-04-15T07:24:36;10.60;99.90
31639;DHT22;18248;51.522;7.020;2023-04-15T07:27:34;10.80;99.90
31639;DHT22;18248;51.522;7.020;2023-04-15T07:30:33;10.90;99.90
31639;DHT22;18248;51.522;7.020;2023-04-15T07:33:32;11.10;99.90
31639;DHT22;18248;51.522;7.020;2023-04-15T07:36:30;11.30;99.90
31639;DHT22;18248;51.522;7.020;2023-04-15T07:39:29;11.50;99.90
31639;DHT22;18248;51.522;7.020;2023-04-15T07:42:29;11.70;99.90
31639;DHT22;18248;51.522;7.020;2023-04-15T07:45:28;11.90;99.90
31639;DHT22;18248;51.522;7.020;2023-04-15T07:48:26;11.90;99.90
31639;DHT22;18248;51.522;7.020;2023-04-15T07:51:26;12.00;99.90
31639;DHT22;18248;51.522;7.020;2023-04-15T07:54:26;12.20;99.90
31639;DHT22;18248;51.522;7.020;2023-04-15T07:57:25;12.20;99.90
31639;DHT22;18248;51.522;7.020;2023-04-15T08:00:23;12.20;99.90
31639;DHT22;18248;51.522;7.020;2023-04-15T08:03:23;12.40;99.90
31639;DHT22;18248;51.522;7.020;2023-04-15T08:06:22;12.60;99.90
31639;DHT22;18248;51.522;7.020;2023-04-15T08:09:21;12.80;99.90
31639;DHT22;18248;51.522;7.020;2023-04-15T08:12:19;12.90;99.90
31639;DHT22;18248;51.522;7.020;2023-04-15T08:15:19;12.80;99.90
31639;DHT22;18248;51.522;7.020;2023-04-15T08:18:18;12.70;99.90
31639;DHT22;18248;51.522;7.020;2023-04-15T08:21:18;12.60;99.90
31639;DHT22;18248;51.522;7.020;2023-04-15T08:24:17;12.60;99.90
31639;DHT22;18248;51.522;7.020;2023-04-15T08:27:17;12.70;99.90
31639;DHT22;18248;51.522;7.020;2023-04-15T08:30:16;12.80;99.90
31639;DHT22;18248;51.522;7.020;2023-04-15T08:33:14;13.00;99.90
31639;DHT22;18248;51.522;7.020;2023-04-15T08:36:13;13.00;99.90
31639;DHT22;18248;51.522;7.020;2023-04-15T08:39:12;13.20;99.90
31639;DHT22;18248;51.522;7.020;2023-04-15T08:42:15;13.40;99.90
31639;DHT22;18248;51.522;7.020;2023-04-15T08:45:15;13.60;99.90
31639;DHT22;18248;51.522;7.020;2023-04-15T08:48:19;13.80;99.90
31639;DHT22;18248;51.522;7.020;2023-04-15T08:51:17;13.80;99.90
31639;DHT22;18248;51.522;7.020;2023-04-15T08:54:17;13.80;99.90
31639;DHT22;18248;51.522;7.020;2023-04-15T08:57:16;13.70;99.90
31639;DHT22;18248;51.522;7.020;2023-04-15T09:00:15;13.70;99.90
31639;DHT22;18248;51.522;7.020;2023-04-15T09:03:15;13.70;99.90
31639;DHT22;18248;51.522;7.020;2023-04-15T09:06:16;13.60;99.90
31639;DHT22;18248;51.522;7.020;2023-04-15T09:09:15;13.50;99.90
31639;DHT22;18248;51.522;7.020;2023-04-15T09:12:13;13.40;99.90
31639;DHT22;18248;51.522;7.020;2023-04-15T09:15:14;13.30;99.90
31639;DHT22;18248;51.522;7.020;2023-04-15T09:18:32;13.30;99.90
31639;DHT22;18248;51.522;7.020;2023-04-15T09:21:31;13.60;99.90
31639;DHT22;18248;51.522;7.020;2023-04-15T09:24:38;13.70;99.90
31639;DHT22;18248;51.522;7.020;2023-04-15T09:27:37;13.70;99.90
31639;DHT22;18248;51.522;7.020;2023-04-15T09:30:45;13.60;99.90
31639;DHT22;18248;51.522;7.020;2023-04-15T09:33:55;13.60;99.90
31639;DHT22;18248;51.522;7.020;2023-04-15T09:36:56;13.60;99.90
31639;DHT22;18248;51.522;7.020;2023-04-15T09:39:55;13.50;99.90
31639;DHT22;18248;51.522;7.020;2023-04-15T09:42:55;13.50;99.90
31639;DHT22;18248;51.522;7.020;2023-04-15T09:45:55;13.50;99.90
31639;DHT22;18248;51.522;7.020;2023-04-15T09:49:09;13.60;99.90
31639;DHT22;18248;51.522;7.020;2023-04-15T09:52:08;13.60;99.90
31639;DHT22;18248;51.522;7.020;2023-04-15T09:55:13;13.60;99.90
31639;DHT22;18248;51.522;7.020;2023-04-15T09:58:19;13.50;99.90
31639;DHT22;18248;51.522;7.020;2023-04-15T10:01:19;13.50;99.90
31639;DHT22;18248;51.522;7.020;2023-04-15T10:04:17;13.50;99.90
31639;DHT22;18248;51.522;7.020;2023-04-15T10:07:16;13.60;99.90
31639;DHT22;18248;51.522;7.020;2023-04-15T10:10:18;13.70;99.90
31639;DHT22;18248;51.522;7.020;2023-04-15T10:13:18;13.70;99.90
31639;DHT22;18248;51.522;7.020;2023-04-15T10:16:19;13.60;99.90
31639;DHT22;18248;51.522;7.020;2023-04-15T10:19:22;13.60;99.90
31639;DHT22;18248;51.522;7.020;2023-04-15T10:22:24;13.50;99.90
31639;DHT22;18248;51.522;7.020;2023-04-15T10:25:26;13.60;99.90
31639;DHT22;18248;51.522;7.020;2023-04-15T10:28:25;13.60;99.90
31639;DHT22;18248;51.522;7.020;2023-04-15T10:31:24;13.60;99.90
31639;DHT22;18248;51.522;7.020;2023-04-15T10:34:24;13.60;99.90
31639;DHT22;18248;51.522;7.020;2023-04-15T10:37:36;13.60;99.90
31639;DHT22;18248;51.522;7.020;2023-04-15T10:40:35;13.50;99.90
31639;DHT22;18248;51.522;7.020;2023-04-15T10:43:36;13.50;99.90
31639;DHT22;18248;51.522;7.020;2023-04-15T10:46:44;13.40;99.90
31639;DHT22;18248;51.522;7.020;2023-04-15T10:49:47;13.40;99.90
31639;DHT22;18248;51.522;7.020;2023-04-15T10:52:49;13.50;99.90
31639;DHT22;18248;51.522;7.020;2023-04-15T10:55:48;13.50;99.90
31639;DHT22;18248;51.522;7.020;2023-04-15T10:58:47;13.50;99.90
31639;DHT22;18248;51.522;7.020;2023-04-15T11:01:56;13.60;99.90
31639;DHT22;18248;51.522;7.020;2023-04-15T11:04:57;13.50;99.90
31639;DHT22;18248;51.522;7.020;2023-04-15T11:07:56;13.50;99.90
31639;DHT22;18248;51.522;7.020;2023-04-15T11:10:55;13.50;99.90
31639;DHT22;18248;51.522;7.020;2023-04-15T11:13:55;13.50;99.90
31639;DHT22;18248;51.522;7.020;2023-04-15T11:16:54;13.50;99.90
31639;DHT22;18248;51.522;7.020;2023-04-15T11:19:53;13.50;99.90
31639;DHT22;18248;51.522;7.020;2023-04-15T11:22:57;13.30;99.90
31639;DHT22;18248;51.522;7.020;2023-04-15T11:25:58;13.30;99.90
31639;DHT22;18248;51.522;7.020;2023-04-15T11:28:57;13.20;99.90
31639;DHT22;18248;51.522;7.020;2023-04-15T11:32:07;13.10;99.90
31639;DHT22;18248;51.522;7.020;2023-04-15T11:35:06;13.00;99.90
31639;DHT22;18248;51.522;7.020;2023-04-15T11:38:08;13.00;99.90
31639;DHT22;18248;51.522;7.020;2023-04-15T11:41:07;13.00;99.90
31639;DHT22;18248;51.522;7.020;2023-04-15T11:44:17;13.00;99.90
31639;DHT22;18248;51.522;7.020;2023-04-15T11:47:23;12.90;99.90
31639;DHT22;18248;51.522;7.020;2023-04-15T11:50:22;12.90;99.90
31639;DHT22;18248;51.522;7.020;2023-04-15T11:53:21;12.80;99.90
31639;DHT22;18248;51.522;7.020;2023-04-15T11:56:22;12.80;99.90
31639;DHT22;18248;51.522;7.020;2023-04-15T11:59:21;12.70;99.90
31639;DHT22;18248;51.522;7.020;2023-04-15T12:02:19;12.60;99.90
31639;DHT22;18248;51.522;7.020;2023-04-15T12:05:18;12.60;99.90
31639;DHT22;18248;51.522;7.020;2023-04-15T12:08:16;12.70;99.90
31639;DHT22;18248;51.522;7.020;2023-04-15T12:11:19;12.60;99.90
31639;DHT22;18248;51.522;7.020;2023-04-15T12:17:22;12.50;99.90
31639;DHT22;18248;51.522;7.020;2023-04-15T12:20:24;12.50;99.90
31639;DHT22;18248;51.522;7.020;2023-04-15T12:23:23;12.50;99.90
31639;DHT22;18248;51.522;7.020;2023-04-15T12:26:30;12.50;99.90
31639;DHT22;18248;51.522;7.020;2023-04-15T12:29:30;12.50;99.90
31639;DHT22;18248;51.522;7.020;2023-04-15T12:32:29;12.50;99.90
31639;DHT22;18248;51.522;7.020;2023-04-15T12:35:27;12.40;99.90
31639;DHT22;18248;51.522;7.020;2023-04-15T12:38:28;12.40;99.90
31639;DHT22;18248;51.522;7.020;2023-04-15T12:41:26;12.40;99.90
31639;DHT22;18248;51.522;7.020;2023-04-15T12:44:25;12.40;99.90
31639;DHT22;18248;51.522;7.020;2023-04-15T12:47:24;12.50;99.90
31639;DHT22;18248;51.522;7.020;2023-04-15T12:50:23;12.50;99.90
31639;DHT22;18248;51.522;7.020;2023-04-15T12:53:21;12.50;99.90
31639;DHT22;18248;51.522;7.020;2023-04-15T12:56:20;12.50;99.90
31639;DHT22;18248;51.522;7.020;2023-04-15T12:59:19;12.70;99.90
31639;DHT22;18248;51.522;7.020;2023-04-15T13:02:18;12.70;99.90
31639;DHT22;18248;51.522;7.020;2023-04-15T13:05:18;12.80;99.90
31639;DHT22;18248;51.522;7.020;2023-04-15T13:08:17;12.80;99.90
31639;DHT22;18248;51.522;7.020;2023-04-15T13:11:16;12.70;99.90
31639;DHT22;18248;51.522;7.020;2023-04-15T13:14:14;12.70;99.90
31639;DHT22;18248;51.522;7.020;2023-04-15T13:17:13;12.70;99.90
31639;DHT22;18248;51.522;7.020;2023-04-15T13:20:11;12.70;99.90
31639;DHT22;18248;51.522;7.020;2023-04-15T13:23:10;12.60;99.90
31639;DHT22;18248;51.522;7.020;2023-04-15T13:26:08;12.60;99.90
31639;DHT22;18248;51.522;7.020;2023-04-15T13:29:07;12.60;99.90
31639;DHT22;18248;51.522;7.020;2023-04-15T13:32:06;12.60;99.90
31639;DHT22;18248;51.522;7.020;2023-04-15T13:35:04;12.60;99.90
31639;DHT22;18248;51.522;7.020;2023-04-15T13:38:03;12.60;99.90
31639;DHT22;18248;51.522;7.020;2023-04-15T13:41:01;12.60;99.90
31639;DHT22;18248;51.522;7.020;2023-04-15T13:44:00;12.50;99.90
31639;DHT22;18248;51.522;7.020;2023-04-15T13:46:59;12.40;99.90
31639;DHT22;18248;51.522;7.020;2023-04-15T13:49:58;12.30;99.90
31639;DHT22;18248;51.522;7.020;2023-04-15T13:52:56;12.30;99.90
31639;DHT22;18248;51.522;7.020;2023-04-15T13:55:55;12.20;99.90
31639;DHT22;18248;51.522;7.020;2023-04-15T13:58:53;12.20;99.90
31639;DHT22;18248;51.522;7.020;2023-04-15T14:01:56;12.20;99.90
31639;DHT22;18248;51.522;7.020;2023-04-15T14:04:54;12.20;99.90
31639;DHT22;18248;51.522;7.020;2023-04-15T14:07:53;12.20;99.90
31639;DHT22;18248;51.522;7.020;2023-04-15T14:10:51;12.30;99.90
31639;DHT22;18248;51.522;7.020;2023-04-15T14:13:50;12.30;99.90
31639;DHT22;18248;51.522;7.020;2023-04-15T14:16:49;12.30;99.90
31639;DHT22;18248;51.522;7.020;2023-04-15T14:19:48;12.30;99.90
31639;DHT22;18248;51.522;7.020;2023-04-15T14:22:46;12.30;99.90
31639;DHT22;18248;51.522;7.020;2023-04-15T14:25:49;12.30;99.90
31639;DHT22;18248;51.522;7.020;2023-04-15T14:28:47;12.30;99.90
31639;DHT22;18248;51.522;7.020;2023-04-15T14:31:46;12.20;99.90
31639;DHT22;18248;51.522;7.020;2023-04-15T14:34:46;12.20;99.90
31639;DHT22;18248;51.522;7.020;2023-04-15T14:37:44;12.10;99.90
31639;DHT22;18248;51.522;7.020;2023-04-15T14:40:44;12.10;99.90
31639;DHT22;18248;51.522;7.020;2023-04-15T14:43:43;12.10;99.90
31639;DHT22;18248;51.522;7.020;2023-04-15T14:46:41;12.10;99.90
31639;DHT22;18248;51.522;7.020;2023-04-15T14:49:40;12.10;99.90
31639;DHT22;18248;51.522;7.020;2023-04-15T14:52:38;12.10;99.90
31639;DHT22;18248;51.522;7.020;2023-04-15T14:55:37;12.10;99.90
31639;DHT22;18248;51.522;7.020;2023-04-15T14:58:36;12.10;99.90
31639;DHT22;18248;51.522;7.020;2023-04-15T15:01:35;12.10;99.90
31639;DHT22;18248;51.522;7.020;2023-04-15T15:04:35;12.00;99.90
31639;DHT22;18248;51.522;7.020;2023-04-15T15:07:34;11.90;99.90
31639;DHT22;18248;51.522;7.020;2023-04-15T15:10:34;11.80;99.90
31639;DHT22;18248;51.522;7.020;2023-04-15T15:13:33;11.80;99.90
31639;DHT22;18248;51.522;7.020;2023-04-15T15:16:32;11.80;99.90
31639;DHT22;18248;51.522;7.020;2023-04-15T15:19:30;11.80;99.90
31639;DHT22;18248;51.522;7.020;2023-04-15T15:22:29;11.80;99.90
31639;DHT22;18248;51.522;7.020;2023-04-15T15:25:29;11.70;99.90
31639;DHT22;18248;51.522;7.020;2023-04-15T15:28:27;11.70;99.90
31639;DHT22;18248;51.522;7.020;2023-04-15T15:31:26;11.70;99.90
31639;DHT22;18248;51.522;7.020;2023-04-15T15:34:25;11.60;99.90
31639;DHT22;18248;51.522;7.020;2023-04-15T15:37:24;11.60;99.90
31639;DHT22;18248;51.522;7.020;2023-04-15T15:40:22;11.60;99.90
31639;DHT22;18248;51.522;7.020;2023-04-15T15:43:21;11.50;99.90
31639;DHT22;18248;51.522;7.020;2023-04-15T15:46:19;11.50;99.90
31639;DHT22;18248;51.522;7.020;2023-04-15T15:49:18;11.40;99.90
31639;DHT22;18248;51.522;7.020;2023-04-15T15:52:17;11.40;99.90
31639;DHT22;18248;51.522;7.020;2023-04-15T15:55:16;11.40;99.90
31639;DHT22;18248;51.522;7.020;2023-04-15T15:58:14;11.40;99.90
31639;DHT22;18248;51.522;7.020;2023-04-15T16:01:13;11.40;99.90
31639;DHT22;18248;51.522;7.020;2023-04-15T16:04:12;11.40;99.90
31639;DHT22;18248;51.522;7.020;2023-04-15T16:07:10;11.30;99.90
31639;DHT22;18248;51.522;7.020;2023-04-15T16:10:10;11.30;99.90
31639;DHT22;18248;51.522;7.020;2023-04-15T16:13:09;11.30;99.90
31639;DHT22;18248;51.522;7.020;2023-04-15T16:16:10;11.30;99.90
31639;DHT22;18248;51.522;7.020;2023-04-15T16:19:08;11.30;99.90
31639;DHT22;18248;51.522;7.020;2023-04-15T16:22:07;11.20;99.90
31639;DHT22;18248;51.522;7.020;2023-04-15T16:25:07;11.20;99.90
31639;DHT22;18248;51.522;7.020;2023-04-15T16:28:05;11.20;99.90
31639;DHT22;18248;51.522;7.020;2023-04-15T16:31:05;11.10;99.90
31639;DHT22;18248;51.522;7.020;2023-04-15T16:34:04;11.10;99.90
31639;DHT22;18248;51.522;7.020;2023-04-15T16:37:03;11.10;99.90
31639;DHT22;18248;51.522;7.020;2023-04-15T16:40:02;11.10;99.90
31639;DHT22;18248;51.522;7.020;2023-04-15T16:43:01;11.10;99.90
31639;DHT22;18248;51.522;7.020;2023-04-15T16:46:00;11.00;99.90
31639;DHT22;18248;51.522;7.020;2023-04-15T16:48:59;11.00;99.90
31639;DHT22;18248;51.522;7.020;2023-04-15T16:51:58;11.00;99.90
31639;DHT22;18248;51.522;7.020;2023-04-15T16:54:56;11.00;99.90
31639;DHT22;18248;51.522;7.020;2023-04-15T16:57:55;11.00;99.90
31639;DHT22;18248;51.522;7.020;2023-04-15T17:00:53;11.00;99.90
31639;DHT22;18248;51.522;7.020;2023-04-15T17:03:52;11.00;99.90
31639;DHT22;18248;51.522;7.020;2023-04-15T17:06:50;11.00;99.90
31639;DHT22;18248;51.522;7.020;2023-04-15T17:09:50;11.00;99.90
31639;DHT22;18248;51.522;7.020;2023-04-15T17:12:49;11.00;99.90
31639;DHT22;18248;51.522;7.020;2023-04-15T17:15:49;11.00;99.90
31639;DHT22;18248;51.522;7.020;2023-04-15T17:18:47;11.00;99.90
31639;DHT22;18248;51.522;7.020;2023-04-15T17:21:47;10.90;99.90
31639;DHT22;18248;51.522;7.020;2023-04-15T17:24:46;10.90;99.90
31639;DHT22;18248;51.522;7.020;2023-04-15T17:27:44;10.90;99.90
31639;DHT22;18248;51.522;7.020;2023-04-15T17:30:43;10.90;99.90
31639;DHT22;18248;51.522;7.020;2023-04-15T17:33:43;10.90;99.90
31639;DHT22;18248;51.522;7.020;2023-04-15T17:36:42;10.80;99.90
31639;DHT22;18248;51.522;7.020;2023-04-15T17:39:41;10.70;99.90
31639;DHT22;18248;51.522;7.020;2023-04-15T17:42:39;10.70;99.90
31639;DHT22;18248;51.522;7.020;2023-04-15T17:45:38;10.70;99.90
31639;DHT22;18248;51.522;7.020;2023-04-15T17:48:37;10.60;99.90
31639;DHT22;18248;51.522;7.020;2023-04-15T17:51:35;10.60;99.90
31639;DHT22;18248;51.522;7.020;2023-04-15T17:54:34;10.60;99.90
31639;DHT22;18248;51.522;7.020;2023-04-15T17:57:32;10.50;99.90
31639;DHT22;18248;51.522;7.020;2023-04-15T18:00:31;10.50;99.90
31639;DHT22;18248;51.522;7.020;2023-04-15T18:03:29;10.50;99.90
31639;DHT22;18248;51.522;7.020;2023-04-15T18:06:28;10.50;99.90
31639;DHT22;18248;51.522;7.020;2023-04-15T18:09:26;10.50;99.90
31639;DHT22;18248;51.522;7.020;2023-04-15T18:12:25;10.50;99.90
31639;DHT22;18248;51.522;7.020;2023-04-15T18:15:24;10.40;99.90
31639;DHT22;18248;51.522;7.020;2023-04-15T18:18:22;10.50;99.90
31639;DHT22;18248;51.522;7.020;2023-04-15T18:21:21;10.40;99.90
31639;DHT22;18248;51.522;7.020;2023-04-15T18:24:20;10.40;99.90
31639;DHT22;18248;51.522;7.020;2023-04-15T18:27:19;10.40;99.90
31639;DHT22;18248;51.522;7.020;2023-04-15T18:30:17;10.40;99.90
31639;DHT22;18248;51.522;7.020;2023-04-15T18:33:16;10.40;99.90
31639;DHT22;18248;51.522;7.020;2023-04-15T18:36:15;10.40;99.90
31639;DHT22;18248;51.522;7.020;2023-04-15T18:39:13;10.30;99.90
31639;DHT22;18248;51.522;7.020;2023-04-15T18:42:12;10.30;99.90
31639;DHT22;18248;51.522;7.020;2023-04-15T18:45:11;10.30;99.90
31639;DHT22;18248;51.522;7.020;2023-04-15T18:48:09;10.40;99.90
31639;DHT22;18248;51.522;7.020;2023-04-15T18:51:08;10.40;99.90
31639;DHT22;18248;51.522;7.020;2023-04-15T18:54:06;10.40;99.90
31639;DHT22;18248;51.522;7.020;2023-04-15T18:57:05;10.40;99.90
31639;DHT22;18248;51.522;7.020;2023-04-15T19:00:07;10.40;99.90
31639;DHT22;18248;51.522;7.020;2023-04-15T19:03:06;10.30;99.90
31639;DHT22;18248;51.522;7.020;2023-04-15T19:06:05;10.20;99.90